sensor_id;sensor_type;location;lat;lon;timestamp;temperature;humidity
40253;DHT22;25972;51.854;4.534;2023-07-13T00:00:01;17.50;99.90
40253;DHT22;25972;51.854;4.534;2023-07-13T00:02:31;17.50;99.90
40253;DHT22;25972;51.854;4.534;2023-07-13T00:04:58;17.50;99.90
40253;DHT22;25972;51.854;4.534;2023-07-13T00:07:25;17.60;99.90
40253;DHT22;25972;51.854;4.534;2023-07-13T00:09:51;17.60;99.90
40253;DHT22;25972;51.854;4.534;2023-07-13T00:12:28;17.60;99.90
40253;DHT22;25972;51.854;4.534;2023-07-13T00:14:56;17.60;99.90
40253;DHT22;25972;51.854;4.534;2023-07-13T00:17:22;17.60;99.90
40253;DHT22;25972;51.854;4.534;2023-07-13T00:19:48;17.60;99.90
40253;DHT22;25972;51.854;4.534;2023-07-13T00:22:14;17.50;99.90
40253;DHT22;25972;51.854;4.534;2023-07-13T00:24:41;17.50;99.90
40253;DHT22;25972;51.854;4.534;2023-07-13T00:27:08;17.50;99.90
40253;DHT22;25972;51.854;4.534;2023-07-13T00:29:35;17.50;99.90
40253;DHT22;25972;51.854;4.534;2023-07-13T00:32:02;17.50;99.90
40253;DHT22;25972;51.854;4.534;2023-07-13T00:34:28;17.60;99.90
40253;DHT22;25972;51.854;4.534;2023-07-13T00:36:54;17.60;99.90
40253;DHT22;25972;51.854;4.534;2023-07-13T00:39:20;17.60;99.90
40253;DHT22;25972;51.854;4.534;2023-07-13T00:41:48;17.50;99.90
40253;DHT22;25972;51.854;4.534;2023-07-13T00:44:14;17.50;99.90
40253;DHT22;25972;51.854;4.534;2023-07-13T00:46:41;17.40;99.90
40253;DHT22;25972;51.854;4.534;2023-07-13T00:49:12;17.40;99.90
40253;DHT22;25972;51.854;4.534;2023-07-13T00:51:47;17.30;99.90
40253;DHT22;25972;51.854;4.534;2023-07-13T00:54:17;17.30;99.90
40253;DHT22;25972;51.854;4.534;2023-07-13T00:56:45;17.20;99.90
40253;DHT22;25972;51.854;4.534;2023-07-13T00:59:15;17.20;99.90
40253;DHT22;25972;51.854;4.534;2023-07-13T01:01:42;17.10;99.90
40253;DHT22;25972;51.854;4.534;2023-07-13T01:04:09;17.10;99.90
40253;DHT22;25972;51.854;4.534;2023-07-13T01:06:35;17.10;99.90
40253;DHT22;25972;51.854;4.534;2023-07-13T01:09:03;17.10;99.90
40253;DHT22;25972;51.854;4.534;2023-07-13T01:11:30;17.00;99.90
40253;DHT22;25972;51.854;4.534;2023-07-13T01:13:57;17.00;99.90
40253;DHT22;25972;51.854;4.534;2023-07-13T01:16:29;16.90;99.90
40253;DHT22;25972;51.854;4.534;2023-07-13T01:18:56;16.90;99.90
40253;DHT22;25972;51.854;4.534;2023-07-13T01:21:31;16.90;99.90
40253;DHT22;25972;51.854;4.534;2023-07-13T01:23:59;16.90;99.90
40253;DHT22;25972;51.854;4.534;2023-07-13T01:26:24;16.80;99.90
40253;DHT22;25972;51.854;4.534;2023-07-13T01:28:50;16.80;99.90
40253;DHT22;25972;51.854;4.534;2023-07-13T01:31:17;16.70;99.90
40253;DHT22;25972;51.854;4.534;2023-07-13T01:33:43;16.70;99.90
40253;DHT22;25972;51.854;4.534;2023-07-13T01:36:10;16.70;99.90
40253;DHT22;25972;51.854;4.534;2023-07-13T01:38:38;16.70;99.90
40253;DHT22;25972;51.854;4.534;2023-07-13T01:41:05;16.60;99.90
40253;DHT22;25972;51.854;4.534;2023-07-13T01:43:31;16.60;99.90
40253;DHT22;25972;51.854;4.534;2023-07-13T01:45:59;16.60;99.90
40253;DHT22;25972;51.854;4.534;2023-07-13T01:48:24;16.60;99.90
40253;DHT22;25972;51.854;4.534;2023-07-13T01:50:50;16.50;99.90
40253;DHT22;25972;51.854;4.534;2023-07-13T01:53:17;16.50;99.90
40253;DHT22;25972;51.854;4.534;2023-07-13T01:55:44;16.50;99.90
40253;DHT22;25972;51.854;4.534;2023-07-13T01:58:10;16.50;99.90
40253;DHT22;25972;51.854;4.534;2023-07-13T02:00:36;16.50;99.90
40253;DHT22;25972;51.854;4.534;2023-07-13T02:03:02;16.40;99.90
40253;DHT22;25972;51.854;4.534;2023-07-13T02:05:28;16.40;99.90
40253;DHT22;25972;51.854;4.534;2023-07-13T02:07:54;16.40;99.90
40253;DHT22;25972;51.854;4.534;2023-07-13T02:10:20;16.40;99.90
40253;DHT22;25972;51.854;4.534;2023-07-13T02:12:49;16.40;99.90
40253;DHT22;25972;51.854;4.534;2023-07-13T02:15:16;16.30;99.90
40253;DHT22;25972;51.854;4.534;2023-07-13T02:17:42;16.40;99.90
40253;DHT22;25972;51.854;4.534;2023-07-13T02:20:09;16.40;99.90
40253;DHT22;25972;51.854;4.534;2023-07-13T02:22:35;16.40;99.90
40253;DHT22;25972;51.854;4.534;2023-07-13T02:25:02;16.40;99.90
40253;DHT22;25972;51.854;4.534;2023-07-13T02:27:28;16.40;99.90
40253;DHT22;25972;51.854;4.534;2023-07-13T02:29:55;16.40;99.90
40253;DHT22;25972;51.854;4.534;2023-07-13T02:32:21;16.40;99.90
40253;DHT22;25972;51.854;4.534;2023-07-13T02:34:47;16.50;99.90
40253;DHT22;25972;51.854;4.534;2023-07-13T02:37:13;16.50;99.90
40253;DHT22;25972;51.854;4.534;2023-07-13T02:39:39;16.50;99.90
40253;DHT22;25972;51.854;4.534;2023-07-13T02:42:06;16.50;99.90
40253;DHT22;25972;51.854;4.534;2023-07-13T02:44:32;16.50;99.90
40253;DHT22;25972;51.854;4.534;2023-07-13T02:46:59;16.50;99.90
40253;DHT22;25972;51.854;4.534;2023-07-13T02:49:25;16.50;99.90
40253;DHT22;25972;51.854;4.534;2023-07-13T02:51:52;16.50;99.90
40253;DHT22;25972;51.854;4.534;2023-07-13T02:54:17;16.50;99.90
40253;DHT22;25972;51.854;4.534;2023-07-13T02:56:44;16.50;99.90
40253;DHT22;25972;51.854;4.534;2023-07-13T02:59:10;16.50;99.90
40253;DHT22;25972;51.854;4.534;2023-07-13T03:01:36;16.50;99.90
40253;DHT22;25972;51.854;4.534;2023-07-13T03:04:04;16.50;99.90
40253;DHT22;25972;51.854;4.534;2023-07-13T03:06:34;16.50;99.90
40253;DHT22;25972;51.854;4.534;2023-07-13T03:09:00;16.40;99.90
40253;DHT22;25972;51.854;4.534;2023-07-13T03:11:29;16.40;99.90
40253;DHT22;25972;51.854;4.534;2023-07-13T03:14:15;16.40;99.90
40253;DHT22;25972;51.854;4.534;2023-07-13T03:16:41;16.40;99.90
40253;DHT22;25972;51.854;4.534;2023-07-13T03:19:09;16.50;99.90
40253;DHT22;25972;51.854;4.534;2023-07-13T03:21:35;16.50;99.90
40253;DHT22;25972;51.854;4.534;2023-07-13T03:24:01;16.50;99.90
40253;DHT22;25972;51.854;4.534;2023-07-13T03:26:27;16.50;99.90
40253;DHT22;25972;51.854;4.534;2023-07-13T03:28:53;16.60;99.90
40253;DHT22;25972;51.854;4.534;2023-07-13T03:31:25;16.60;99.90
40253;DHT22;25972;51.854;4.534;2023-07-13T03:33:51;16.60;99.90
40253;DHT22;25972;51.854;4.534;2023-07-13T03:36:21;16.60;99.90
40253;DHT22;25972;51.854;4.534;2023-07-13T03:38:50;16.60;99.90
40253;DHT22;25972;51.854;4.534;2023-07-13T03:41:20;16.60;99.90
40253;DHT22;25972;51.854;4.534;2023-07-13T03:43:48;16.60;99.90
40253;DHT22;25972;51.854;4.534;2023-07-13T03:46:16;16.60;99.90
40253;DHT22;25972;51.854;4.534;2023-07-13T03:48:44;16.60;99.90
40253;DHT22;25972;51.854;4.534;2023-07-13T03:51:13;16.60;99.90
40253;DHT22;25972;51.854;4.534;2023-07-13T03:53:42;16.60;99.90
40253;DHT22;25972;51.854;4.534;2023-07-13T03:56:10;16.60;99.90
40253;DHT22;25972;51.854;4.534;2023-07-13T03:58:39;16.50;99.90
40253;DHT22;25972;51.854;4.534;2023-07-13T04:01:18;16.50;99.90
40253;DHT22;25972;51.854;4.534;2023-07-13T04:03:44;16.50;99.90
40253;DHT22;25972;51.854;4.534;2023-07-13T04:06:15;16.50;99.90
40253;DHT22;25972;51.854;4.534;2023-07-13T04:08:49;16.50;99.90
40253;DHT22;25972;51.854;4.534;2023-07-13T04:11:16;16.50;99.90
40253;DHT22;25972;51.854;4.534;2023-07-13T04:13:42;16.40;99.90
40253;DHT22;25972;51.854;4.534;2023-07-13T04:16:08;16.40;99.90
40253;DHT22;25972;51.854;4.534;2023-07-13T04:18:34;16.50;99.90
40253;DHT22;25972;51.854;4.534;2023-07-13T04:21:00;16.50;99.90
40253;DHT22;25972;51.854;4.534;2023-07-13T04:23:26;16.40;99.90
40253;DHT22;25972;51.854;4.534;2023-07-13T04:25:53;16.40;99.90
40253;DHT22;25972;51.854;4.534;2023-07-13T04:28:20;16.50;99.90
40253;DHT22;25972;51.854;4.534;2023-07-13T04:30:46;16.50;99.90
40253;DHT22;25972;51.854;4.534;2023-07-13T04:33:12;16.60;99.90
40253;DHT22;25972;51.854;4.534;2023-07-13T04:35:38;16.70;99.90
40253;DHT22;25972;51.854;4.534;2023-07-13T04:38:04;16.80;99.90
40253;DHT22;25972;51.854;4.534;2023-07-13T04:40:30;16.90;99.90
40253;DHT22;25972;51.854;4.534;2023-07-13T04:42:58;17.00;99.90
40253;DHT22;25972;51.854;4.534;2023-07-13T04:45:24;17.10;99.90
40253;DHT22;25972;51.854;4.534;2023-07-13T04:47:50;17.20;99.90
40253;DHT22;25972;51.854;4.534;2023-07-13T04:50:16;17.30;99.90
40253;DHT22;25972;51.854;4.534;2023-07-13T04:52:46;17.30;99.90
40253;DHT22;25972;51.854;4.534;2023-07-13T04:55:13;17.40;99.90
40253;DHT22;25972;51.854;4.534;2023-07-13T04:57:39;17.30;99.90
40253;DHT22;25972;51.854;4.534;2023-07-13T05:00:08;17.30;99.90
40253;DHT22;25972;51.854;4.534;2023-07-13T05:02:34;17.30;99.90
40253;DHT22;25972;51.854;4.534;2023-07-13T05:05:01;17.30;99.90
40253;DHT22;25972;51.854;4.534;2023-07-13T05:07:27;17.30;99.90
40253;DHT22;25972;51.854;4.534;2023-07-13T05:09:53;17.30;99.90
40253;DHT22;25972;51.854;4.534;2023-07-13T05:12:19;17.50;99.90
40253;DHT22;25972;51.854;4.534;2023-07-13T05:14:45;17.70;99.90
40253;DHT22;25972;51.854;4.534;2023-07-13T05:17:12;17.80;99.90
40253;DHT22;25972;51.854;4.534;2023-07-13T05:19:38;17.90;99.90
40253;DHT22;25972;51.854;4.534;2023-07-13T05:22:04;18.60;99.90
40253;DHT22;25972;51.854;4.534;2023-07-13T05:24:30;19.40;99.90
40253;DHT22;25972;51.854;4.534;2023-07-13T05:26:56;20.10;99.90
40253;DHT22;25972;51.854;4.534;2023-07-13T05:29:23;20.30;99.90
40253;DHT22;25972;51.854;4.534;2023-07-13T05:31:49;20.00;99.90
40253;DHT22;25972;51.854;4.534;2023-07-13T05:34:17;19.60;99.90
40253;DHT22;25972;51.854;4.534;2023-07-13T05:36:43;19.20;99.90
40253;DHT22;25972;51.854;4.534;2023-07-13T05:39:09;19.00;99.90
40253;DHT22;25972;51.854;4.534;2023-07-13T05:41:35;19.00;99.90
40253;DHT22;25972;51.854;4.534;2023-07-13T05:44:01;19.60;99.90
40253;DHT22;25972;51.854;4.534;2023-07-13T05:46:27;20.20;99.90
40253;DHT22;25972;51.854;4.534;2023-07-13T05:48:53;20.60;99.90
40253;DHT22;25972;51.854;4.534;2023-07-13T05:51:21;20.80;99.90
40253;DHT22;25972;51.854;4.534;2023-07-13T05:53:47;20.40;99.90
40253;DHT22;25972;51.854;4.534;2023-07-13T05:56:13;19.60;99.90
40253;DHT22;25972;51.854;4.534;2023-07-13T05:58:39;19.20;99.90
40253;DHT22;25972;51.854;4.534;2023-07-13T06:01:06;19.00;99.90
40253;DHT22;25972;51.854;4.534;2023-07-13T06:03:33;18.80;99.90
40253;DHT22;25972;51.854;4.534;2023-07-13T06:05:59;18.60;99.90
40253;DHT22;25972;51.854;4.534;2023-07-13T06:08:27;18.50;99.90
40253;DHT22;25972;51.854;4.534;2023-07-13T06:10:53;18.40;99.90
40253;DHT22;25972;51.854;4.534;2023-07-13T06:13:19;18.30;99.90
40253;DHT22;25972;51.854;4.534;2023-07-13T06:15:48;18.20;99.90
40253;DHT22;25972;51.854;4.534;2023-07-13T06:18:14;18.10;99.90
40253;DHT22;25972;51.854;4.534;2023-07-13T06:20:40;18.00;99.90
40253;DHT22;25972;51.854;4.534;2023-07-13T06:23:06;18.20;99.90
40253;DHT22;25972;51.854;4.534;2023-07-13T06:25:34;18.70;99.90
40253;DHT22;25972;51.854;4.534;2023-07-13T06:28:00;19.00;99.90
40253;DHT22;25972;51.854;4.534;2023-07-13T06:30:26;19.10;99.90
40253;DHT22;25972;51.854;4.534;2023-07-13T06:32:52;19.20;99.90
40253;DHT22;25972;51.854;4.534;2023-07-13T06:35:18;19.20;99.90
40253;DHT22;25972;51.854;4.534;2023-07-13T06:37:44;19.40;99.90
40253;DHT22;25972;51.854;4.534;2023-07-13T06:40:10;19.30;99.90
40253;DHT22;25972;51.854;4.534;2023-07-13T06:42:38;19.60;99.90
40253;DHT22;25972;51.854;4.534;2023-07-13T06:45:05;19.80;99.90
40253;DHT22;25972;51.854;4.534;2023-07-13T06:47:31;20.30;99.90
40253;DHT22;25972;51.854;4.534;2023-07-13T06:49:57;20.60;99.90
40253;DHT22;25972;51.854;4.534;2023-07-13T06:52:23;20.90;99.90
40253;DHT22;25972;51.854;4.534;2023-07-13T06:54:49;21.30;99.90
40253;DHT22;25972;51.854;4.534;2023-07-13T06:57:15;21.70;99.90
40253;DHT22;25972;51.854;4.534;2023-07-13T06:59:43;22.20;99.90
40253;DHT22;25972;51.854;4.534;2023-07-13T07:02:09;22.40;99.90
40253;DHT22;25972;51.854;4.534;2023-07-13T07:04:36;22.00;99.90
40253;DHT22;25972;51.854;4.534;2023-07-13T07:07:02;21.30;99.90
40253;DHT22;25972;51.854;4.534;2023-07-13T07:09:28;20.70;99.90
40253;DHT22;25972;51.854;4.534;2023-07-13T07:11:55;20.20;99.90
40253;DHT22;25972;51.854;4.534;2023-07-13T07:14:21;19.90;99.90
40253;DHT22;25972;51.854;4.534;2023-07-13T07:16:50;19.60;99.90
40253;DHT22;25972;51.854;4.534;2023-07-13T07:19:16;19.40;99.90
40253;DHT22;25972;51.854;4.534;2023-07-13T07:21:42;19.20;99.90
40253;DHT22;25972;51.854;4.534;2023-07-13T07:24:08;18.80;99.90
40253;DHT22;25972;51.854;4.534;2023-07-13T07:26:34;18.50;99.90
40253;DHT22;25972;51.854;4.534;2023-07-13T07:29:00;18.30;99.90
40253;DHT22;25972;51.854;4.534;2023-07-13T07:31:26;18.20;99.90
40253;DHT22;25972;51.854;4.534;2023-07-13T07:33:53;18.10;99.90
40253;DHT22;25972;51.854;4.534;2023-07-13T07:36:19;18.10;99.90
40253;DHT22;25972;51.854;4.534;2023-07-13T07:38:45;18.10;99.90
40253;DHT22;25972;51.854;4.534;2023-07-13T07:41:13;18.10;99.90
40253;DHT22;25972;51.854;4.534;2023-07-13T07:43:39;18.10;99.90
40253;DHT22;25972;51.854;4.534;2023-07-13T07:46:05;18.10;99.90
40253;DHT22;25972;51.854;4.534;2023-07-13T07:48:32;18.20;99.90
40253;DHT22;25972;51.854;4.534;2023-07-13T07:50:59;18.30;99.90
40253;DHT22;25972;51.854;4.534;2023-07-13T07:53:25;18.30;99.90
40253;DHT22;25972;51.854;4.534;2023-07-13T07:55:51;18.70;99.90
40253;DHT22;25972;51.854;4.534;2023-07-13T07:58:17;19.20;99.90
40253;DHT22;25972;51.854;4.534;2023-07-13T08:00:43;19.80;99.90
40253;DHT22;25972;51.854;4.534;2023-07-13T08:03:09;20.30;99.90
40253;DHT22;25972;51.854;4.534;2023-07-13T08:05:36;20.50;99.90
40253;DHT22;25972;51.854;4.534;2023-07-13T08:08:04;20.60;99.90
40253;DHT22;25972;51.854;4.534;2023-07-13T08:10:30;20.30;99.90
40253;DHT22;25972;51.854;4.534;2023-07-13T08:12:56;20.00;99.90
40253;DHT22;25972;51.854;4.534;2023-07-13T08:15:22;20.00;99.90
40253;DHT22;25972;51.854;4.534;2023-07-13T08:17:48;20.00;99.90
40253;DHT22;25972;51.854;4.534;2023-07-13T08:20:16;20.00;99.90
40253;DHT22;25972;51.854;4.534;2023-07-13T08:22:42;20.00;99.90
40253;DHT22;25972;51.854;4.534;2023-07-13T08:25:09;20.00;99.90
40253;DHT22;25972;51.854;4.534;2023-07-13T08:27:35;19.90;99.90
40253;DHT22;25972;51.854;4.534;2023-07-13T08:30:01;19.90;99.90
40253;DHT22;25972;51.854;4.534;2023-07-13T08:32:27;19.90;99.90
40253;DHT22;25972;51.854;4.534;2023-07-13T08:34:53;19.90;99.90
40253;DHT22;25972;51.854;4.534;2023-07-13T08:37:19;20.00;99.90
40253;DHT22;25972;51.854;4.534;2023-07-13T08:39:45;20.20;99.90
40253;DHT22;25972;51.854;4.534;2023-07-13T08:42:31;20.30;99.90
40253;DHT22;25972;51.854;4.534;2023-07-13T08:45:08;20.40;99.90
40253;DHT22;25972;51.854;4.534;2023-07-13T08:47:40;20.30;99.90
40253;DHT22;25972;51.854;4.534;2023-07-13T08:50:12;20.10;99.90
40253;DHT22;25972;51.854;4.534;2023-07-13T08:52:40;20.10;99.90
40253;DHT22;25972;51.854;4.534;2023-07-13T08:55:13;20.70;99.90
40253;DHT22;25972;51.854;4.534;2023-07-13T08:57:43;20.90;99.90
40253;DHT22;25972;51.854;4.534;2023-07-13T09:00:11;21.10;99.90
40253;DHT22;25972;51.854;4.534;2023-07-13T09:02:42;21.10;99.90
40253;DHT22;25972;51.854;4.534;2023-07-13T09:05:13;21.10;99.90
40253;DHT22;25972;51.854;4.534;2023-07-13T09:07:52;21.10;99.90
40253;DHT22;25972;51.854;4.534;2023-07-13T09:10:26;20.90;99.90
40253;DHT22;25972;51.854;4.534;2023-07-13T09:13:04;20.90;99.90
40253;DHT22;25972;51.854;4.534;2023-07-13T09:15:35;20.80;99.90
40253;DHT22;25972;51.854;4.534;2023-07-13T09:18:07;20.70;99.90
40253;DHT22;25972;51.854;4.534;2023-07-13T09:20:37;20.60;99.90
40253;DHT22;25972;51.854;4.534;2023-07-13T09:23:10;20.60;99.90
40253;DHT22;25972;51.854;4.534;2023-07-13T09:25:38;20.60;99.90
40253;DHT22;25972;51.854;4.534;2023-07-13T09:28:12;20.70;99.90
40253;DHT22;25972;51.854;4.534;2023-07-13T09:30:45;20.70;99.90
40253;DHT22;25972;51.854;4.534;2023-07-13T09:33:12;20.70;99.90
40253;DHT22;25972;51.854;4.534;2023-07-13T09:35:40;20.60;99.90
40253;DHT22;25972;51.854;4.534;2023-07-13T09:38:12;20.60;99.90
40253;DHT22;25972;51.854;4.534;2023-07-13T09:40:52;20.60;99.90
40253;DHT22;25972;51.854;4.534;2023-07-13T09:43:23;20.60;99.90
40253;DHT22;25972;51.854;4.534;2023-07-13T09:45:49;20.70;99.90
40253;DHT22;25972;51.854;4.534;2023-07-13T09:48:16;20.80;99.90
40253;DHT22;25972;51.854;4.534;2023-07-13T09:50:43;20.80;99.90
40253;DHT22;25972;51.854;4.534;2023-07-13T09:53:14;21.20;99.90
40253;DHT22;25972;51.854;4.534;2023-07-13T09:55:42;21.40;99.90
40253;DHT22;25972;51.854;4.534;2023-07-13T09:58:11;21.60;99.90
40253;DHT22;25972;51.854;4.534;2023-07-13T10:00:39;21.60;99.90
40253;DHT22;25972;51.854;4.534;2023-07-13T10:03:17;21.30;99.90
40253;DHT22;25972;51.854;4.534;2023-07-13T10:05:45;21.20;99.90
40253;DHT22;25972;51.854;4.534;2023-07-13T10:08:20;21.10;99.90
40253;DHT22;25972;51.854;4.534;2023-07-13T10:10:46;21.50;99.90
40253;DHT22;25972;51.854;4.534;2023-07-13T10:13:34;21.80;99.90
40253;DHT22;25972;51.854;4.534;2023-07-13T10:16:05;22.30;99.90
40253;DHT22;25972;51.854;4.534;2023-07-13T10:18:40;22.60;99.90
40253;DHT22;25972;51.854;4.534;2023-07-13T10:21:13;22.40;79.10
40253;DHT22;25972;51.854;4.534;2023-07-13T10:23:40;22.40;36.10
40253;DHT22;25972;51.854;4.534;2023-07-13T10:26:15;22.30;26.30
40253;DHT22;25972;51.854;4.534;2023-07-13T10:28:45;22.20;18.90
40253;DHT22;25972;51.854;4.534;2023-07-13T10:31:15;22.40;23.60
40253;DHT22;25972;51.854;4.534;2023-07-13T10:33:42;22.80;29.00
40253;DHT22;25972;51.854;4.534;2023-07-13T10:36:14;22.90;4.70
40253;DHT22;25972;51.854;4.534;2023-07-13T10:38:41;22.90;1.00
40253;DHT22;25972;51.854;4.534;2023-07-13T10:41:11;22.80;1.00
40253;DHT22;25972;51.854;4.534;2023-07-13T10:43:41;22.90;1.00
40253;DHT22;25972;51.854;4.534;2023-07-13T10:46:11;23.10;1.00
40253;DHT22;25972;51.854;4.534;2023-07-13T10:48:40;23.00;1.00
40253;DHT22;25972;51.854;4.534;2023-07-13T10:51:08;23.20;1.00
40253;DHT22;25972;51.854;4.534;2023-07-13T10:53:38;23.40;1.00
40253;DHT22;25972;51.854;4.534;2023-07-13T10:56:15;23.50;1.00
40253;DHT22;25972;51.854;4.534;2023-07-13T10:58:45;23.50;1.00
40253;DHT22;25972;51.854;4.534;2023-07-13T11:01:13;23.60;1.00
40253;DHT22;25972;51.854;4.534;2023-07-13T11:03:49;23.50;1.00
40253;DHT22;25972;51.854;4.534;2023-07-13T11:06:17;23.60;1.00
40253;DHT22;25972;51.854;4.534;2023-07-13T11:08:58;23.70;1.00
40253;DHT22;25972;51.854;4.534;2023-07-13T11:11:36;23.80;1.00
40253;DHT22;25972;51.854;4.534;2023-07-13T11:14:14;24.00;1.00
40253;DHT22;25972;51.854;4.534;2023-07-13T11:16:50;23.80;1.00
40253;DHT22;25972;51.854;4.534;2023-07-13T11:19:41;24.00;1.00
40253;DHT22;25972;51.854;4.534;2023-07-13T11:22:21;23.90;1.00
40253;DHT22;25972;51.854;4.534;2023-07-13T11:24:57;24.20;1.00
40253;DHT22;25972;51.854;4.534;2023-07-13T11:27:45;24.10;1.00
40253;DHT22;25972;51.854;4.534;2023-07-13T11:30:35;24.30;1.00
40253;DHT22;25972;51.854;4.534;2023-07-13T11:33:13;24.30;1.00
40253;DHT22;25972;51.854;4.534;2023-07-13T11:35:45;24.30;1.00
40253;DHT22;25972;51.854;4.534;2023-07-13T11:38:16;24.30;1.00
40253;DHT22;25972;51.854;4.534;2023-07-13T11:40:44;24.30;1.00
40253;DHT22;25972;51.854;4.534;2023-07-13T11:43:13;24.40;1.00
40253;DHT22;25972;51.854;4.534;2023-07-13T11:45:39;24.40;1.00
40253;DHT22;25972;51.854;4.534;2023-07-13T11:48:15;24.40;1.00
40253;DHT22;25972;51.854;4.534;2023-07-13T11:50:53;24.30;1.00
40253;DHT22;25972;51.854;4.534;2023-07-13T11:53:22;24.30;1.00
40253;DHT22;25972;51.854;4.534;2023-07-13T11:55:48;24.30;1.00
40253;DHT22;25972;51.854;4.534;2023-07-13T11:58:19;24.40;1.00
40253;DHT22;25972;51.854;4.534;2023-07-13T12:00:46;24.50;1.00
40253;DHT22;25972;51.854;4.534;2023-07-13T12:03:18;24.70;1.00
40253;DHT22;25972;51.854;4.534;2023-07-13T12:05:57;24.90;1.00
40253;DHT22;25972;51.854;4.534;2023-07-13T12:08:23;25.00;1.00
40253;DHT22;25972;51.854;4.534;2023-07-13T12:10:58;24.90;1.00
40253;DHT22;25972;51.854;4.534;2023-07-13T12:13:27;25.10;1.00
40253;DHT22;25972;51.854;4.534;2023-07-13T12:15:54;25.10;1.00
40253;DHT22;25972;51.854;4.534;2023-07-13T12:18:22;24.90;1.00
40253;DHT22;25972;51.854;4.534;2023-07-13T12:20:50;24.80;1.00
40253;DHT22;25972;51.854;4.534;2023-07-13T12:23:24;24.70;1.00
40253;DHT22;25972;51.854;4.534;2023-07-13T12:25:51;24.70;1.00
40253;DHT22;25972;51.854;4.534;2023-07-13T12:28:21;24.70;1.00
40253;DHT22;25972;51.854;4.534;2023-07-13T12:30:49;24.80;1.00
40253;DHT22;25972;51.854;4.534;2023-07-13T12:33:16;24.70;1.00
40253;DHT22;25972;51.854;4.534;2023-07-13T12:35:46;24.80;1.00
40253;DHT22;25972;51.854;4.534;2023-07-13T12:38:13;24.90;1.00
40253;DHT22;25972;51.854;4.534;2023-07-13T12:40:41;25.00;1.00
40253;DHT22;25972;51.854;4.534;2023-07-13T12:43:12;25.00;1.00
40253;DHT22;25972;51.854;4.534;2023-07-13T12:45:38;25.10;1.00
40253;DHT22;25972;51.854;4.534;2023-07-13T12:48:11;24.90;1.00
40253;DHT22;25972;51.854;4.534;2023-07-13T12:50:41;24.80;1.00
40253;DHT22;25972;51.854;4.534;2023-07-13T12:53:14;25.00;1.00
40253;DHT22;25972;51.854;4.534;2023-07-13T12:55:42;25.00;1.00
40253;DHT22;25972;51.854;4.534;2023-07-13T12:58:16;25.10;1.00
40253;DHT22;25972;51.854;4.534;2023-07-13T13:00:48;25.20;1.00
40253;DHT22;25972;51.854;4.534;2023-07-13T13:03:22;25.10;1.00
40253;DHT22;25972;51.854;4.534;2023-07-13T13:05:57;25.00;1.00
40253;DHT22;25972;51.854;4.534;2023-07-13T13:08:23;25.00;1.00
40253;DHT22;25972;51.854;4.534;2023-07-13T13:10:51;24.80;1.00
40253;DHT22;25972;51.854;4.534;2023-07-13T13:13:16;24.80;1.00
40253;DHT22;25972;51.854;4.534;2023-07-13T13:15:43;24.80;1.00
40253;DHT22;25972;51.854;4.534;2023-07-13T13:18:15;24.70;1.00
40253;DHT22;25972;51.854;4.534;2023-07-13T13:20:42;24.80;1.00
40253;DHT22;25972;51.854;4.534;2023-07-13T13:23:11;24.90;1.00
40253;DHT22;25972;51.854;4.534;2023-07-13T13:25:37;25.10;1.00
40253;DHT22;25972;51.854;4.534;2023-07-13T13:28:05;25.10;1.00
40253;DHT22;25972;51.854;4.534;2023-07-13T13:30:31;25.30;1.00
40253;DHT22;25972;51.854;4.534;2023-07-13T13:32:57;25.20;1.00
40253;DHT22;25972;51.854;4.534;2023-07-13T13:35:23;25.20;1.00
40253;DHT22;25972;51.854;4.534;2023-07-13T13:37:49;25.00;1.00
40253;DHT22;25972;51.854;4.534;2023-07-13T13:40:18;25.00;1.00
40253;DHT22;25972;51.854;4.534;2023-07-13T13:42:44;25.10;1.00
40253;DHT22;25972;51.854;4.534;2023-07-13T13:45:12;25.20;1.00
40253;DHT22;25972;51.854;4.534;2023-07-13T13:47:39;25.20;1.00
40253;DHT22;25972;51.854;4.534;2023-07-13T13:50:13;24.90;1.00
40253;DHT22;25972;51.854;4.534;2023-07-13T13:52:40;24.80;1.00
40253;DHT22;25972;51.854;4.534;2023-07-13T13:55:12;25.00;1.00
40253;DHT22;25972;51.854;4.534;2023-07-13T13:57:38;25.00;1.00
40253;DHT22;25972;51.854;4.534;2023-07-13T14:00:06;25.00;1.00
40253;DHT22;25972;51.854;4.534;2023-07-13T14:02:34;24.70;1.00
40253;DHT22;25972;51.854;4.534;2023-07-13T14:05:02;24.80;1.00
40253;DHT22;25972;51.854;4.534;2023-07-13T14:07:28;24.80;1.00
40253;DHT22;25972;51.854;4.534;2023-07-13T14:09:58;24.80;1.00
40253;DHT22;25972;51.854;4.534;2023-07-13T14:12:26;24.90;1.00
40253;DHT22;25972;51.854;4.534;2023-07-13T14:14:54;24.70;1.00
40253;DHT22;25972;51.854;4.534;2023-07-13T14:17:22;24.70;1.00
40253;DHT22;25972;51.854;4.534;2023-07-13T14:19:51;24.80;1.00
40253;DHT22;25972;51.854;4.534;2023-07-13T14:22:18;24.80;1.00
40253;DHT22;25972;51.854;4.534;2023-07-13T14:24:44;24.80;1.00
40253;DHT22;25972;51.854;4.534;2023-07-13T14:27:11;24.90;1.00
40253;DHT22;25972;51.854;4.534;2023-07-13T14:29:38;24.80;1.00
40253;DHT22;25972;51.854;4.534;2023-07-13T14:32:05;24.80;1.00
40253;DHT22;25972;51.854;4.534;2023-07-13T14:34:31;24.90;1.00
40253;DHT22;25972;51.854;4.534;2023-07-13T14:36:59;24.90;1.00
40253;DHT22;25972;51.854;4.534;2023-07-13T14:39:25;24.80;1.00
40253;DHT22;25972;51.854;4.534;2023-07-13T14:41:52;24.70;1.00
40253;DHT22;25972;51.854;4.534;2023-07-13T14:44:23;24.70;1.00
40253;DHT22;25972;51.854;4.534;2023-07-13T14:46:50;24.70;1.00
40253;DHT22;25972;51.854;4.534;2023-07-13T14:49:24;24.50;1.00
40253;DHT22;25972;51.854;4.534;2023-07-13T14:51:51;24.60;1.00
40253;DHT22;25972;51.854;4.534;2023-07-13T14:54:19;24.60;1.00
40253;DHT22;25972;51.854;4.534;2023-07-13T14:56:45;24.60;1.00
40253;DHT22;25972;51.854;4.534;2023-07-13T14:59:11;24.70;1.00
40253;DHT22;25972;51.854;4.534;2023-07-13T15:01:39;24.70;1.00
40253;DHT22;25972;51.854;4.534;2023-07-13T15:04:06;24.50;1.00
40253;DHT22;25972;51.854;4.534;2023-07-13T15:06:52;24.50;1.00
40253;DHT22;25972;51.854;4.534;2023-07-13T15:09:20;24.60;1.00
40253;DHT22;25972;51.854;4.534;2023-07-13T15:11:46;24.60;1.00
40253;DHT22;25972;51.854;4.534;2023-07-13T15:14:12;24.50;1.00
40253;DHT22;25972;51.854;4.534;2023-07-13T15:16:38;24.30;1.00
40253;DHT22;25972;51.854;4.534;2023-07-13T15:19:04;24.50;1.00
40253;DHT22;25972;51.854;4.534;2023-07-13T15:21:31;24.50;1.00
40253;DHT22;25972;51.854;4.534;2023-07-13T15:24:00;24.40;1.00
40253;DHT22;25972;51.854;4.534;2023-07-13T15:26:28;24.50;1.00
40253;DHT22;25972;51.854;4.534;2023-07-13T15:28:55;24.50;1.00
40253;DHT22;25972;51.854;4.534;2023-07-13T15:31:22;24.50;1.00
40253;DHT22;25972;51.854;4.534;2023-07-13T15:33:50;24.50;1.00
40253;DHT22;25972;51.854;4.534;2023-07-13T15:36:17;24.50;1.00
40253;DHT22;25972;51.854;4.534;2023-07-13T15:38:43;24.30;1.00
40253;DHT22;25972;51.854;4.534;2023-07-13T15:41:17;24.20;1.00